sensor_id;sensor_type;location;lat;lon;timestamp;pressure;altitude;pressure_sealevel;temperature;humidity
9307;BME280;4691;47.612;7.610;2023-08-31T00:00:49;97494.91;;;16.47;100.00
9307;BME280;4691;47.612;7.610;2023-08-31T00:03:18;97465.41;;;16.46;100.00
9307;BME280;4691;47.612;7.610;2023-08-31T00:05:44;97445.06;;;16.43;100.00
9307;BME280;4691;47.612;7.610;2023-08-31T00:08:10;97436.78;;;16.45;100.00
9307;BME280;4691;47.612;7.610;2023-08-31T00:10:37;97427.84;;;16.44;100.00
9307;BME280;4691;47.612;7.610;2023-08-31T00:13:02;97414.09;;;16.39;100.00
9307;BME280;4691;47.612;7.610;2023-08-31T00:15:28;97392.88;;;16.36;100.00
9307;BME280;4691;47.612;7.610;2023-08-31T00:17:54;97383.31;;;16.33;100.00
9307;BME280;4691;47.612;7.610;2023-08-31T00:20:19;97348.19;;;16.27;100.00
9307;BME280;4691;47.612;7.610;2023-08-31T00:22:45;97322.75;;;16.15;100.00
9307;BME280;4691;47.612;7.610;2023-08-31T00:25:10;97262.84;;;15.98;100.00
9307;BME280;4691;47.612;7.610;2023-08-31T00:27:35;97142.41;;;15.77;100.00
9307;BME280;4691;47.612;7.610;2023-08-31T00:30:06;97002.94;;;15.57;100.00
9307;BME280;4691;47.612;7.610;2023-08-31T00:32:33;96908.97;;;15.41;100.00
9307;BME280;4691;47.612;7.610;2023-08-31T00:34:59;96845.78;;;15.37;100.00
9307;BME280;4691;47.612;7.610;2023-08-31T00:37:25;96775.31;;;15.33;100.00
9307;BME280;4691;47.612;7.610;2023-08-31T00:39:50;96545.00;;;15.31;100.00
9307;BME280;4691;47.612;7.610;2023-08-31T00:42:17;96498.03;;;15.27;100.00
9307;BME280;4691;47.612;7.610;2023-08-31T00:44:43;96468.84;;;15.23;100.00
9307;BME280;4691;47.612;7.610;2023-08-31T00:47:09;96433.63;;;15.18;100.00
9307;BME280;4691;47.612;7.610;2023-08-31T00:49:34;96429.06;;;15.12;100.00
9307;BME280;4691;47.612;7.610;2023-08-31T00:52:00;96393.84;;;15.07;100.00
9307;BME280;4691;47.612;7.610;2023-08-31T00:54:25;96373.16;;;15.01;100.00
9307;BME280;4691;47.612;7.610;2023-08-31T00:56:55;96367.38;;;14.91;100.00
9307;BME280;4691;47.612;7.610;2023-08-31T00:59:21;96396.94;;;14.84;100.00
9307;BME280;4691;47.612;7.610;2023-08-31T01:04:26;96346.03;;;14.63;100.00
9307;BME280;4691;47.612;7.610;2023-08-31T01:07:03;96311.88;;;14.50;100.00
9307;BME280;4691;47.612;7.610;2023-08-31T01:09:43;96278.78;;;14.49;100.00
9307;BME280;4691;47.612;7.610;2023-08-31T01:12:17;96243.84;;;14.49;100.00
9307;BME280;4691;47.612;7.610;2023-08-31T01:14:52;96153.88;;;14.45;100.00
9307;BME280;4691;47.612;7.610;2023-08-31T01:17:24;96081.47;;;14.44;100.00
9307;BME280;4691;47.612;7.610;2023-08-31T01:19:54;96041.41;;;14.35;100.00
9307;BME280;4691;47.612;7.610;2023-08-31T01:25:01;95983.38;;;14.21;100.00
9307;BME280;4691;47.612;7.610;2023-08-31T01:27:30;95981.88;;;14.25;100.00
9307;BME280;4691;47.612;7.610;2023-08-31T01:29:56;95975.69;;;14.31;100.00
9307;BME280;4691;47.612;7.610;2023-08-31T01:32:21;95973.38;;;14.35;100.00
9307;BME280;4691;47.612;7.610;2023-08-31T01:34:46;95923.63;;;14.26;100.00
9307;BME280;4691;47.612;7.610;2023-08-31T01:37:16;95934.75;;;14.29;100.00
9307;BME280;4691;47.612;7.610;2023-08-31T01:39:52;95931.19;;;14.35;100.00
9307;BME280;4691;47.612;7.610;2023-08-31T01:42:21;95941.13;;;14.42;100.00
9307;BME280;4691;47.612;7.610;2023-08-31T01:44:48;95871.41;;;14.47;100.00
9307;BME280;4691;47.612;7.610;2023-08-31T01:47:15;95849.06;;;14.46;100.00
9307;BME280;4691;47.612;7.610;2023-08-31T01:49:41;95859.81;;;14.53;100.00
9307;BME280;4691;47.612;7.610;2023-08-31T01:52:08;95159.25;;;14.52;100.00
9307;BME280;4691;47.612;7.610;2023-08-31T01:54:34;95148.06;;;14.55;100.00
9307;BME280;4691;47.612;7.610;2023-08-31T01:56:59;95129.69;;;14.52;100.00
9307;BME280;4691;47.612;7.610;2023-08-31T01:59:24;95127.00;;;14.52;100.00
9307;BME280;4691;47.612;7.610;2023-08-31T02:01:50;95080.03;;;14.43;100.00
9307;BME280;4691;47.612;7.610;2023-08-31T02:04:15;95071.38;;;14.41;100.00
9307;BME280;4691;47.612;7.610;2023-08-31T02:06:40;95057.38;;;14.38;100.00
9307;BME280;4691;47.612;7.610;2023-08-31T02:09:06;95051.88;;;14.22;100.00
9307;BME280;4691;47.612;7.610;2023-08-31T02:11:31;95009.00;;;14.15;100.00
9307;BME280;4691;47.612;7.610;2023-08-31T02:13:58;95017.44;;;14.07;100.00
9307;BME280;4691;47.612;7.610;2023-08-31T02:19:32;94616.69;;;14.05;100.00
9307;BME280;4691;47.612;7.610;2023-08-31T02:21:57;94680.59;;;14.03;100.00
9307;BME280;4691;47.612;7.610;2023-08-31T02:24:22;94726.81;;;14.05;100.00
9307;BME280;4691;47.612;7.610;2023-08-31T02:26:48;94761.91;;;14.15;100.00
9307;BME280;4691;47.612;7.610;2023-08-31T02:29:14;94794.13;;;14.15;100.00
9307;BME280;4691;47.612;7.610;2023-08-31T02:31:39;94815.50;;;14.22;100.00
9307;BME280;4691;47.612;7.610;2023-08-31T02:34:04;94819.56;;;14.24;100.00
9307;BME280;4691;47.612;7.610;2023-08-31T02:36:30;94807.34;;;14.16;100.00
9307;BME280;4691;47.612;7.610;2023-08-31T02:38:56;94998.28;;;14.15;100.00
9307;BME280;4691;47.612;7.610;2023-08-31T02:41:21;95024.56;;;14.13;100.00
9307;BME280;4691;47.612;7.610;2023-08-31T02:43:47;95050.38;;;14.14;100.00
9307;BME280;4691;47.612;7.610;2023-08-31T02:46:14;95063.09;;;14.19;100.00
9307;BME280;4691;47.612;7.610;2023-08-31T02:48:40;95075.94;;;14.16;100.00
9307;BME280;4691;47.612;7.610;2023-08-31T02:51:05;95076.16;;;14.15;100.00
9307;BME280;4691;47.612;7.610;2023-08-31T02:53:30;95084.22;;;14.15;100.00
9307;BME280;4691;47.612;7.610;2023-08-31T02:55:56;95095.22;;;14.13;100.00
9307;BME280;4691;47.612;7.610;2023-08-31T02:58:22;95095.91;;;14.09;100.00
9307;BME280;4691;47.612;7.610;2023-08-31T03:00:47;95108.75;;;14.07;100.00
9307;BME280;4691;47.612;7.610;2023-08-31T03:03:17;95109.34;;;14.09;100.00
9307;BME280;4691;47.612;7.610;2023-08-31T03:05:43;95109.94;;;14.11;100.00
9307;BME280;4691;47.612;7.610;2023-08-31T03:08:09;95112.63;;;14.11;100.00
9307;BME280;4691;47.612;7.610;2023-08-31T03:10:35;95114.03;;;14.13;100.00
9307;BME280;4691;47.612;7.610;2023-08-31T03:13:00;95118.13;;;14.16;100.00
9307;BME280;4691;47.612;7.610;2023-08-31T03:15:26;95114.13;;;14.19;100.00
9307;BME280;4691;47.612;7.610;2023-08-31T03:17:51;95111.31;;;14.25;100.00
9307;BME280;4691;47.612;7.610;2023-08-31T03:20:16;95100.03;;;14.23;100.00
9307;BME280;4691;47.612;7.610;2023-08-31T03:22:42;95096.28;;;14.24;100.00
9307;BME280;4691;47.612;7.610;2023-08-31T03:25:08;95096.88;;;14.26;100.00
9307;BME280;4691;47.612;7.610;2023-08-31T03:27:33;95085.06;;;14.15;100.00
9307;BME280;4691;47.612;7.610;2023-08-31T03:29:58;95082.72;;;14.19;100.00
9307;BME280;4691;47.612;7.610;2023-08-31T03:32:23;95085.75;;;14.23;100.00
9307;BME280;4691;47.612;7.610;2023-08-31T03:34:49;95105.16;;;14.25;100.00
9307;BME280;4691;47.612;7.610;2023-08-31T03:37:15;95110.78;;;14.23;100.00
9307;BME280;4691;47.612;7.610;2023-08-31T03:39:40;95116.69;;;14.25;100.00
9307;BME280;4691;47.612;7.610;2023-08-31T03:42:07;95108.53;;;14.20;100.00
9307;BME280;4691;47.612;7.610;2023-08-31T03:44:33;95123.00;;;14.19;100.00
9307;BME280;4691;47.612;7.610;2023-08-31T03:46:58;95123.00;;;14.19;100.00
9307;BME280;4691;47.612;7.610;2023-08-31T03:49:23;95141.34;;;14.22;100.00
9307;BME280;4691;47.612;7.610;2023-08-31T03:51:49;95159.25;;;14.28;100.00
9307;BME280;4691;47.612;7.610;2023-08-31T03:54:14;95174.31;;;14.29;100.00
9307;BME280;4691;47.612;7.610;2023-08-31T03:56:39;95189.38;;;14.30;100.00
9307;BME280;4691;47.612;7.610;2023-08-31T03:59:05;95188.81;;;14.28;100.00
9307;BME280;4691;47.612;7.610;2023-08-31T04:01:30;95191.50;;;14.28;100.00
9307;BME280;4691;47.612;7.610;2023-08-31T04:03:56;95190.31;;;14.24;100.00
9307;BME280;4691;47.612;7.610;2023-08-31T04:06:21;95203.13;;;14.22;100.00
9307;BME280;4691;47.612;7.610;2023-08-31T04:08:46;95206.75;;;14.16;100.00
9307;BME280;4691;47.612;7.610;2023-08-31T04:11:12;95213.16;;;14.15;100.00
9307;BME280;4691;47.612;7.610;2023-08-31T04:13:37;95216.91;;;14.14;100.00
9307;BME280;4691;47.612;7.610;2023-08-31T04:16:02;95212.34;;;14.14;100.00
9307;BME280;4691;47.612;7.610;2023-08-31T04:18:28;95225.66;;;14.09;100.00
9307;BME280;4691;47.612;7.610;2023-08-31T04:20:54;95221.09;;;14.10;100.00
9307;BME280;4691;47.612;7.610;2023-08-31T04:23:20;95238.03;;;14.10;100.00
9307;BME280;4691;47.612;7.610;2023-08-31T04:25:46;95233.69;;;14.09;100.00
9307;BME280;4691;47.612;7.610;2023-08-31T04:28:12;95231.03;;;14.09;100.00
9307;BME280;4691;47.612;7.610;2023-08-31T04:30:39;95266.19;;;14.08;100.00
9307;BME280;4691;47.612;7.610;2023-08-31T04:33:06;95273.63;;;14.06;100.00
9307;BME280;4691;47.612;7.610;2023-08-31T04:35:31;95331.06;;;14.05;100.00
9307;BME280;4691;47.612;7.610;2023-08-31T04:37:57;95331.78;;;14.00;100.00
9307;BME280;4691;47.612;7.610;2023-08-31T04:40:23;95345.41;;;13.99;100.00
9307;BME280;4691;47.612;7.610;2023-08-31T04:42:49;95353.13;;;13.95;100.00
9307;BME280;4691;47.612;7.610;2023-08-31T04:45:14;95349.00;;;13.92;100.00
9307;BME280;4691;47.612;7.610;2023-08-31T04:47:40;95353.53;;;13.92;100.00
9307;BME280;4691;47.612;7.610;2023-08-31T04:50:05;95350.28;;;13.90;100.00
9307;BME280;4691;47.612;7.610;2023-08-31T04:52:32;95358.34;;;13.90;100.00
9307;BME280;4691;47.612;7.610;2023-08-31T04:54:57;95387.63;;;13.91;100.00
9307;BME280;4691;47.612;7.610;2023-08-31T04:57:22;95402.72;;;13.92;100.00
9307;BME280;4691;47.612;7.610;2023-08-31T04:59:48;95374.81;;;13.93;100.00
9307;BME280;4691;47.612;7.610;2023-08-31T05:02:14;95393.59;;;13.93;100.00
9307;BME280;4691;47.612;7.610;2023-08-31T05:04:39;95386.59;;;13.92;100.00
9307;BME280;4691;47.612;7.610;2023-08-31T05:07:04;95395.69;;;13.91;100.00
9307;BME280;4691;47.612;7.610;2023-08-31T05:09:30;95387.47;;;13.86;100.00
9307;BME280;4691;47.612;7.610;2023-08-31T05:12:00;95373.03;;;13.87;100.00
9307;BME280;4691;47.612;7.610;2023-08-31T05:14:25;95367.41;;;13.89;100.00
9307;BME280;4691;47.612;7.610;2023-08-31T05:16:50;95372.13;;;13.93;100.00
9307;BME280;4691;47.612;7.610;2023-08-31T05:19:15;95368.38;;;13.94;100.00
9307;BME280;4691;47.612;7.610;2023-08-31T05:21:41;95382.19;;;13.98;100.00
9307;BME280;4691;47.612;7.610;2023-08-31T05:24:06;95388.06;;;14.07;100.00
9307;BME280;4691;47.612;7.610;2023-08-31T05:26:31;95391.16;;;14.10;100.00
9307;BME280;4691;47.612;7.610;2023-08-31T05:28:57;95371.06;;;14.13;100.00
9307;BME280;4691;47.612;7.610;2023-08-31T05:31:22;95377.63;;;14.17;100.00
9307;BME280;4691;47.612;7.610;2023-08-31T05:33:47;95363.16;;;14.18;100.00
9307;BME280;4691;47.612;7.610;2023-08-31T05:36:13;95354.19;;;14.24;100.00
9307;BME280;4691;47.612;7.610;2023-08-31T05:38:38;95368.56;;;14.30;100.00
9307;BME280;4691;47.612;7.610;2023-08-31T05:41:07;95352.59;;;14.35;100.00
9307;BME280;4691;47.612;7.610;2023-08-31T05:43:36;95350.84;;;14.41;100.00
9307;BME280;4691;47.612;7.610;2023-08-31T05:46:02;95305.09;;;14.47;100.00
9307;BME280;4691;47.612;7.610;2023-08-31T05:48:28;95241.69;;;14.58;100.00
9307;BME280;4691;47.612;7.610;2023-08-31T05:50:54;95230.56;;;14.66;100.00
9307;BME280;4691;47.612;7.610;2023-08-31T05:53:19;95214.69;;;14.76;100.00
9307;BME280;4691;47.612;7.610;2023-08-31T05:55:45;95179.84;;;14.81;100.00
9307;BME280;4691;47.612;7.610;2023-08-31T05:58:10;95160.22;;;14.93;100.00
9307;BME280;4691;47.612;7.610;2023-08-31T06:00:36;95144.28;;;15.03;100.00
9307;BME280;4691;47.612;7.610;2023-08-31T06:03:01;95122.28;;;15.06;100.00
9307;BME280;4691;47.612;7.610;2023-08-31T06:05:29;95087.91;;;15.08;100.00
9307;BME280;4691;47.612;7.610;2023-08-31T06:07:56;95062.63;;;15.09;100.00
9307;BME280;4691;47.612;7.610;2023-08-31T06:10:22;95026.59;;;15.10;100.00
9307;BME280;4691;47.612;7.610;2023-08-31T06:12:48;95027.19;;;15.12;100.00
9307;BME280;4691;47.612;7.610;2023-08-31T06:15:14;95050.78;;;15.22;100.00
9307;BME280;4691;47.612;7.610;2023-08-31T06:17:40;95069.03;;;15.20;100.00
9307;BME280;4691;47.612;7.610;2023-08-31T06:20:07;95153.81;;;15.22;100.00
9307;BME280;4691;47.612;7.610;2023-08-31T06:22:33;95195.16;;;15.16;100.00
9307;BME280;4691;47.612;7.610;2023-08-31T06:24:59;95251.28;;;15.24;100.00
9307;BME280;4691;47.612;7.610;2023-08-31T06:27:24;95288.13;;;15.36;100.00
9307;BME280;4691;47.612;7.610;2023-08-31T06:29:50;95316.22;;;15.40;100.00
9307;BME280;4691;47.612;7.610;2023-08-31T06:32:16;95352.50;;;15.49;100.00
9307;BME280;4691;47.612;7.610;2023-08-31T06:34:41;95365.38;;;15.47;100.00
9307;BME280;4691;47.612;7.610;2023-08-31T06:37:06;95369.81;;;15.53;100.00
9307;BME280;4691;47.612;7.610;2023-08-31T06:39:32;95405.75;;;15.47;100.00
9307;BME280;4691;47.612;7.610;2023-08-31T06:41:58;95438.53;;;15.44;100.00
9307;BME280;4691;47.612;7.610;2023-08-31T06:44:23;95447.66;;;15.55;100.00
9307;BME280;4691;47.612;7.610;2023-08-31T06:46:49;95471.53;;;15.51;100.00
9307;BME280;4691;47.612;7.610;2023-08-31T06:49:14;95534.38;;;15.45;100.00
9307;BME280;4691;47.612;7.610;2023-08-31T06:51:40;95542.78;;;15.49;100.00
9307;BME280;4691;47.612;7.610;2023-08-31T06:54:05;95568.50;;;15.63;100.00
9307;BME280;4691;47.612;7.610;2023-08-31T06:56:34;95577.47;;;15.87;100.00
9307;BME280;4691;47.612;7.610;2023-08-31T06:58:59;95612.47;;;15.87;100.00
9307;BME280;4691;47.612;7.610;2023-08-31T07:01:25;95666.75;;;16.02;100.00
9307;BME280;4691;47.612;7.610;2023-08-31T07:03:52;95790.97;;;16.13;100.00
9307;BME280;4691;47.612;7.610;2023-08-31T07:06:17;95886.50;;;16.17;100.00
9307;BME280;4691;47.612;7.610;2023-08-31T07:08:42;96088.75;;;16.28;100.00
9307;BME280;4691;47.612;7.610;2023-08-31T07:11:10;96362.47;;;16.38;100.00
9307;BME280;4691;47.612;7.610;2023-08-31T07:13:36;96464.69;;;16.52;100.00
9307;BME280;4691;47.612;7.610;2023-08-31T07:16:01;96523.22;;;16.45;100.00
9307;BME280;4691;47.612;7.610;2023-08-31T07:18:27;96556.53;;;16.64;100.00
9307;BME280;4691;47.612;7.610;2023-08-31T07:20:52;96604.28;;;16.64;100.00
9307;BME280;4691;47.612;7.610;2023-08-31T07:23:17;96643.25;;;16.74;100.00
9307;BME280;4691;47.612;7.610;2023-08-31T07:25:42;96672.75;;;16.76;100.00
9307;BME280;4691;47.612;7.610;2023-08-31T07:28:08;96691.88;;;16.88;100.00
9307;BME280;4691;47.612;7.610;2023-08-31T07:30:34;96697.84;;;16.96;100.00
9307;BME280;4691;47.612;7.610;2023-08-31T07:32:59;96736.88;;;17.01;100.00
9307;BME280;4691;47.612;7.610;2023-08-31T07:35:28;96778.19;;;16.94;100.00
9307;BME280;4691;47.612;7.610;2023-08-31T07:37:53;96795.00;;;17.10;100.00
9307;BME280;4691;47.612;7.610;2023-08-31T07:40:19;96814.94;;;17.15;100.00
9307;BME280;4691;47.612;7.610;2023-08-31T07:42:44;96824.50;;;17.05;100.00
9307;BME280;4691;47.612;7.610;2023-08-31T07:45:09;96852.53;;;17.10;100.00
9307;BME280;4691;47.612;7.610;2023-08-31T07:47:35;96860.41;;;17.25;100.00
9307;BME280;4691;47.612;7.610;2023-08-31T07:50:00;96869.56;;;17.24;100.00
9307;BME280;4691;47.612;7.610;2023-08-31T07:52:25;96873.69;;;17.40;100.00
9307;BME280;4691;47.612;7.610;2023-08-31T07:54:51;96904.00;;;17.75;100.00
9307;BME280;4691;47.612;7.610;2023-08-31T07:57:16;96991.91;;;17.98;100.00
9307;BME280;4691;47.612;7.610;2023-08-31T07:59:41;97050.97;;;17.68;100.00
9307;BME280;4691;47.612;7.610;2023-08-31T08:02:06;97048.91;;;17.50;100.00
9307;BME280;4691;47.612;7.610;2023-08-31T08:04:32;97050.34;;;17.46;100.00
9307;BME280;4691;47.612;7.610;2023-08-31T08:06:57;97059.06;;;17.61;100.00
9307;BME280;4691;47.612;7.610;2023-08-31T08:09:22;97064.91;;;17.71;100.00
9307;BME280;4691;47.612;7.610;2023-08-31T08:11:48;97089.22;;;17.45;100.00
9307;BME280;4691;47.612;7.610;2023-08-31T08:14:13;97081.50;;;17.35;100.00
9307;BME280;4691;47.612;7.610;2023-08-31T08:16:40;97052.00;;;17.40;100.00
9307;BME280;4691;47.612;7.610;2023-08-31T08:19:06;97057.81;;;17.50;100.00
9307;BME280;4691;47.612;7.610;2023-08-31T08:21:32;97065.50;;;17.47;100.00
9307;BME280;4691;47.612;7.610;2023-08-31T08:23:57;97055.72;;;17.46;100.00
9307;BME280;4691;47.612;7.610;2023-08-31T08:26:23;97068.63;;;17.57;100.00
9307;BME280;4691;47.612;7.610;2023-08-31T08:28:51;97064.47;;;17.74;100.00
9307;BME280;4691;47.612;7.610;2023-08-31T08:31:16;97111.91;;;17.90;100.00
9307;BME280;4691;47.612;7.610;2023-08-31T08:33:41;97136.06;;;17.98;100.00
9307;BME280;4691;47.612;7.610;2023-08-31T08:36:07;97131.47;;;18.05;100.00
9307;BME280;4691;47.612;7.610;2023-08-31T08:38:32;97123.16;;;18.20;100.00
9307;BME280;4691;47.612;7.610;2023-08-31T08:40:57;97182.44;;;18.42;100.00
9307;BME280;4691;47.612;7.610;2023-08-31T08:43:29;97298.84;;;18.55;100.00
9307;BME280;4691;47.612;7.610;2023-08-31T08:46:02;97314.06;;;18.83;100.00
9307;BME280;4691;47.612;7.610;2023-08-31T08:48:42;97318.63;;;19.02;100.00
9307;BME280;4691;47.612;7.610;2023-08-31T08:51:11;97364.25;;;19.05;100.00
9307;BME280;4691;47.612;7.610;2023-08-31T08:53:37;97381.34;;;19.12;100.00
9307;BME280;4691;47.612;7.610;2023-08-31T08:57:17;97396.78;;;19.12;100.00
9307;BME280;4691;47.612;7.610;2023-08-31T09:02:42;97403.13;;;18.51;100.00
9307;BME280;4691;47.612;7.610;2023-08-31T09:05:14;97389.84;;;18.63;100.00
9307;BME280;4691;47.612;7.610;2023-08-31T09:08:09;97425.72;;;18.78;100.00
9307;BME280;4691;47.612;7.610;2023-08-31T09:10:47;97408.44;;;18.99;100.00
9307;BME280;4691;47.612;7.610;2023-08-31T09:13:17;97425.31;;;19.21;100.00
9307;BME280;4691;47.612;7.610;2023-08-31T09:15:45;97475.97;;;19.54;100.00
9307;BME280;4691;47.612;7.610;2023-08-31T09:18:18;97501.41;;;19.66;100.00
9307;BME280;4691;47.612;7.610;2023-08-31T09:20:50;97480.56;;;19.87;100.00
9307;BME280;4691;47.612;7.610;2023-08-31T09:23:22;97521.88;;;19.82;100.00
9307;BME280;4691;47.612;7.610;2023-08-31T09:25:49;97605.28;;;19.60;100.00
9307;BME280;4691;47.612;7.610;2023-08-31T09:28:29;97653.03;;;19.61;100.00
9307;BME280;4691;47.612;7.610;2023-08-31T09:31:06;97648.97;;;19.24;100.00
9307;BME280;4691;47.612;7.610;2023-08-31T09:33:38;97590.41;;;19.23;100.00
9307;BME280;4691;47.612;7.610;2023-08-31T09:36:06;97610.69;;;19.53;100.00
9307;BME280;4691;47.612;7.610;2023-08-31T09:38:56;97717.97;;;19.76;100.00
9307;BME280;4691;47.612;7.610;2023-08-31T09:41:30;97678.31;;;19.75;100.00
9307;BME280;4691;47.612;7.610;2023-08-31T09:43:58;97747.72;;;20.64;100.00
9307;BME280;4691;47.612;7.610;2023-08-31T09:46:43;97899.81;;;20.64;100.00
9307;BME280;4691;47.612;7.610;2023-08-31T09:49:18;97957.94;;;20.76;100.00
9307;BME280;4691;47.612;7.610;2023-08-31T09:51:48;97943.25;;;20.57;100.00
9307;BME280;4691;47.612;7.610;2023-08-31T09:54:16;97929.94;;;20.76;100.00
9307;BME280;4691;47.612;7.610;2023-08-31T09:56:43;97931.41;;;20.98;100.00
9307;BME280;4691;47.612;7.610;2023-08-31T09:59:09;98069.44;;;21.29;100.00
9307;BME280;4691;47.612;7.610;2023-08-31T10:01:38;98048.06;;;21.06;100.00
9307;BME280;4691;47.612;7.610;2023-08-31T10:07:16;98327.41;;;23.15;100.00
9307;BME280;4691;47.612;7.610;2023-08-31T10:16:27;98438.84;;;22.50;100.00
9307;BME280;4691;47.612;7.610;2023-08-31T10:18:53;98369.03;;;21.74;100.00
9307;BME280;4691;47.612;7.610;2023-08-31T10:21:19;98323.13;;;20.67;100.00
9307;BME280;4691;47.612;7.610;2023-08-31T10:23:45;98302.13;;;20.54;100.00
9307;BME280;4691;47.612;7.610;2023-08-31T10:26:29;98254.41;;;19.80;100.00
9307;BME280;4691;47.612;7.610;2023-08-31T10:29:05;98225.41;;;19.45;100.00
9307;BME280;4691;47.612;7.610;2023-08-31T10:31:34;98214.78;;;19.28;100.00
9307;BME280;4691;47.612;7.610;2023-08-31T10:34:02;98205.28;;;19.18;100.00
9307;BME280;4691;47.612;7.610;2023-08-31T10:39:04;98232.47;;;19.61;100.00
9307;BME280;4691;47.612;7.610;2023-08-31T10:41:34;98242.41;;;19.90;100.00
9307;BME280;4691;47.612;7.610;2023-08-31T10:43:59;98256.47;;;20.43;100.00
9307;BME280;4691;47.612;7.610;2023-08-31T10:46:32;98341.34;;;21.64;100.00
9307;BME280;4691;47.612;7.610;2023-08-31T10:54:05;98503.69;;;22.75;100.00
9307;BME280;4691;47.612;7.610;2023-08-31T10:56:31;98486.75;;;21.90;100.00
9307;BME280;4691;47.612;7.610;2023-08-31T10:59:00;98459.94;;;21.30;100.00
9307;BME280;4691;47.612;7.610;2023-08-31T11:04:16;98446.50;;;21.01;100.00
9307;BME280;4691;47.612;7.610;2023-08-31T11:06:41;98450.59;;;20.69;100.00
9307;BME280;4691;47.612;7.610;2023-08-31T11:09:13;98447.97;;;20.97;100.00
9307;BME280;4691;47.612;7.610;2023-08-31T11:11:39;98474.47;;;20.95;100.00
9307;BME280;4691;47.612;7.610;2023-08-31T11:14:04;98474.59;;;20.65;100.00
9307;BME280;4691;47.612;7.610;2023-08-31T11:16:30;98471.34;;;20.55;100.00
9307;BME280;4691;47.612;7.610;2023-08-31T11:18:56;98467.41;;;20.57;100.00
9307;BME280;4691;47.612;7.610;2023-08-31T11:21:21;98485.78;;;20.77;100.00
9307;BME280;4691;47.612;7.610;2023-08-31T11:23:48;98475.63;;;20.85;100.00
9307;BME280;4691;47.612;7.610;2023-08-31T11:26:14;98501.38;;;21.54;100.00
9307;BME280;4691;47.612;7.610;2023-08-31T11:28:39;98517.06;;;22.15;100.00
9307;BME280;4691;47.612;7.610;2023-08-31T11:31:04;98516.84;;;22.51;100.00
9307;BME280;4691;47.612;7.610;2023-08-31T11:33:32;98544.63;;;22.88;100.00
9307;BME280;4691;47.612;7.610;2023-08-31T11:35:58;98552.47;;;23.04;100.00
9307;BME280;4691;47.612;7.610;2023-08-31T11:38:24;98551.34;;;22.92;100.00
9307;BME280;4691;47.612;7.610;2023-08-31T11:40:49;98543.75;;;22.81;100.00
9307;BME280;4691;47.612;7.610;2023-08-31T11:43:15;98550.72;;;22.42;100.00
9307;BME280;4691;47.612;7.610;2023-08-31T11:45:40;98559.16;;;23.09;100.00
9307;BME280;4691;47.612;7.610;2023-08-31T11:48:06;98560.69;;;23.31;100.00
9307;BME280;4691;47.612;7.610;2023-08-31T11:50:32;98564.91;;;23.94;100.00
9307;BME280;4691;47.612;7.610;2023-08-31T11:52:58;98569.13;;;23.76;100.00
9307;BME280;4691;47.612;7.610;2023-08-31T11:55:23;98576.25;;;23.64;100.00
9307;BME280;4691;47.612;7.610;2023-08-31T11:57:50;98579.63;;;23.93;100.00
9307;BME280;4691;47.612;7.610;2023-08-31T12:00:19;98582.94;;;23.68;100.00
9307;BME280;4691;47.612;7.610;2023-08-31T12:05:23;98581.63;;;23.11;100.00
9307;BME280;4691;47.612;7.610;2023-08-31T12:07:48;98582.78;;;22.88;100.00
9307;BME280;4691;47.612;7.610;2023-08-31T12:10:14;98584.31;;;22.97;100.00
9307;BME280;4691;47.612;7.610;2023-08-31T12:12:39;98585.25;;;22.35;100.00
9307;BME280;4691;47.612;7.610;2023-08-31T12:15:06;98584.06;;;22.44;100.00
9307;BME280;4691;47.612;7.610;2023-08-31T12:17:31;98582.22;;;22.51;100.00
9307;BME280;4691;47.612;7.610;2023-08-31T12:20:03;98585.00;;;22.23;100.00
9307;BME280;4691;47.612;7.610;2023-08-31T12:22:32;98587.44;;;22.46;100.00
9307;BME280;4691;47.612;7.610;2023-08-31T12:24:57;98588.78;;;22.29;100.00
9307;BME280;4691;47.612;7.610;2023-08-31T12:27:22;98596.88;;;22.50;100.00
9307;BME280;4691;47.612;7.610;2023-08-31T12:29:48;98591.94;;;22.67;100.00
9307;BME280;4691;47.612;7.610;2023-08-31T12:32:14;98584.34;;;22.63;100.00
9307;BME280;4691;47.612;7.610;2023-08-31T12:34:40;98584.22;;;22.36;100.00
9307;BME280;4691;47.612;7.610;2023-08-31T12:37:05;98581.84;;;22.61;100.00
9307;BME280;4691;47.612;7.610;2023-08-31T12:39:30;98583.16;;;22.78;100.00
9307;BME280;4691;47.612;7.610;2023-08-31T12:41:57;98582.97;;;22.80;100.00
9307;BME280;4691;47.612;7.610;2023-08-31T12:44:22;98587.31;;;23.29;100.00
9307;BME280;4691;47.612;7.610;2023-08-31T12:46:47;98593.03;;;23.61;100.00
9307;BME280;4691;47.612;7.610;2023-08-31T12:49:13;98591.97;;;23.68;100.00
9307;BME280;4691;47.612;7.610;2023-08-31T12:51:38;98580.56;;;25.03;100.00
9307;BME280;4691;47.612;7.610;2023-08-31T12:54:03;98565.06;;;25.60;100.00
9307;BME280;4691;47.612;7.610;2023-08-31T12:56:29;98558.09;;;25.33;100.00
9307;BME280;4691;47.612;7.610;2023-08-31T12:58:54;98574.13;;;24.19;100.00
9307;BME280;4691;47.612;7.610;2023-08-31T13:01:20;98583.78;;;23.68;100.00
9307;BME280;4691;47.612;7.610;2023-08-31T13:03:47;98592.13;;;23.27;100.00
9307;BME280;4691;47.612;7.610;2023-08-31T13:06:13;98594.88;;;23.27;100.00
9307;BME280;4691;47.612;7.610;2023-08-31T13:08:39;98592.13;;;23.14;100.00
9307;BME280;4691;47.612;7.610;2023-08-31T13:11:05;98602.06;;;22.45;100.00
9307;BME280;4691;47.612;7.610;2023-08-31T13:13:30;98599.09;;;22.75;100.00
9307;BME280;4691;47.612;7.610;2023-08-31T13:15:56;98594.84;;;23.14;100.00
9307;BME280;4691;47.612;7.610;2023-08-31T13:18:22;98597.66;;;23.60;100.00
9307;BME280;4691;47.612;7.610;2023-08-31T13:20:51;98596.44;;;23.83;100.00
9307;BME280;4691;47.612;7.610;2023-08-31T13:23:17;98600.41;;;23.94;100.00
9307;BME280;4691;47.612;7.610;2023-08-31T13:25:42;98592.59;;;23.44;100.00
9307;BME280;4691;47.612;7.610;2023-08-31T13:28:08;98606.41;;;23.22;100.00
9307;BME280;4691;47.612;7.610;2023-08-31T13:30:33;98604.13;;;22.78;100.00
9307;BME280;4691;47.612;7.610;2023-08-31T13:33:02;98610.06;;;22.95;100.00
9307;BME280;4691;47.612;7.610;2023-08-31T13:35:29;98614.44;;;22.41;100.00
9307;BME280;4691;47.612;7.610;2023-08-31T13:37:55;98619.56;;;22.01;100.00
9307;BME280;4691;47.612;7.610;2023-08-31T13:40:20;98617.50;;;22.03;100.00
9307;BME280;4691;47.612;7.610;2023-08-31T13:42:56;98613.66;;;22.19;100.00